フェアバンクス国際空港の過去48時間の天気

フェアバンクス国際空港 (Fairbanks, Fairbanks International Airport)

現在時刻: 2/20 18:39 AKST (2/21 03:39 UTC) 以下の時間は現地時間です。

過去48時間のMETAR気象情報
時間 風向 風速(m/s) 視程 気温(℃) 湿度(%) 気圧(hPa) 天気現象
20 17:53 静穏 0 10km以上 -7.8 80 977.5
20 16:53 東北東 2 10km以上 -7.8 74 977.8
20 15:53 北北東 2 10km以上 -3.9 68 978
20 14:53 北北東 2 10km以上 -3.9 71 978.5
20 13:53 北東 2 10km以上 -3.3 68 979.4
20 12:53 3 10km以上 -2.2 60 980.4
20 11:53 北北東 2 10km以上 -5.6 71 981.2
20 10:53 北北東 3 10km以上 -3.9 66 981.9
20 09:53 静穏 0 10km以上 -5 71 983
20 08:53 北北東 3 10km以上 -7.2 70 983.8
20 07:53 静穏 0 10km以上 -10 80 985.2
20 06:53 北東 4 10km以上 -9.4 76 986.5
20 05:53 北東 3 10km以上 -9.4 76 987.9
20 04:53 東北東 4 10km以上 -10.6 81 988.9
20 03:53 静穏 0 10km以上 -13.3 83 989.6
20 02:53 北東 4 10km以上 -10.6 81 990.4
20 01:53 北東 4 10km以上 -10.6 81 991.4
20 00:53 北東 3 10km以上 -10.6 84 992.2
19 23:53 不定 2 10km以上 -13.3 83 992.6
19 22:53 北北東 2 10km以上 -12.8 88 993.3
19 22:26 2 10km以上 -11.1 84 992
19 21:53 2 10km以上 -10 80 993.6
19 20:53 静穏 0 10km以上 -8.9 80 994.1 弱い雪
19 19:53 北北東 2 10km以上 -8.9 80 994.8 弱い雪
19 18:53 3 10km以上 -8.3 80 994.9
19 17:53 3 10km以上 -8.3 76 995
19 16:53 2 10km以上 -8.9 77 994.9
19 15:53 静穏 0 10km以上 -8.3 76 994.7
19 15:08 3 10km以上 -8.9 73 994
19 14:53 東北東 2 10km以上 -8.3 73 994.4
19 13:53 北北東 2 10km以上 -8.9 77 994.1
19 12:53 静穏 0 10km以上 -8.9 77 993.6
19 12:31 静穏 0 10km以上 -9.4 80 992
19 11:53 2 10km以上 -10 80 993
19 10:53 3 10km以上 -10.6 81 992.3
19 09:53 4 10km以上 -9.4 76 991.7
19 08:53 南南西 2 10km以上 -6.7 68 990.7
19 07:53 西 2 10km以上 -6.1 68 990
19 06:53 西南西 2 10km以上 -5 65 990.1
19 05:53 西南西 2 10km以上 -5.6 68 990
19 04:53 静穏 0 10km以上 -5 65 990.4
19 03:53 西 2 10km以上 -6.1 70 990.8
19 02:53 静穏 0 10km以上 -7.2 77 990.9
19 01:53 西 2 10km以上 -6.7 77 992.1
19 00:53 静穏 0 10km以上 -7.8 80 993.1
18 23:53 静穏 0 10km以上 -7.8 77 993.9
18 22:53 静穏 0 10km以上 -9.4 83 994.9
18 21:53 静穏 0 10km以上 -10 80 995.9
18 20:53 静穏 0 10km以上 -11.1 80 996.7
18 19:53 静穏 0 10km以上 -12.2 80 997.9
18 18:53 静穏 0 10km以上 -12.8 84 998.6
PAFA 210253Z 00000KT 10SM BKN095 BKN200 M08/M11 A2884 RMK AO2 SLP775 T10781106 56009
PAFA 210153Z 06004KT 10SM SCT100 SCT140 BKN200 M08/M12 A2884 RMK AO2 SLP778 T10781117
PAFA 210053Z 02004KT 10SM BKN100 BKN140 BKN200 M04/M09 A2885 RMK AO2 SLP780 T10391089
PAFA 202353Z 02004KT 10SM BKN110 BKN140 BKN200 M04/M08 A2887 RMK AO2 SLP785 T10391083 11017 21078 58026
PAFA 202253Z 04004KT 10SM BKN110 BKN140 OVC200 M03/M08 A2889 RMK AO2 SLP794 T10331083
PAFA 202153Z 01005KT 10SM SCT120 BKN140 BKN200 M02/M09 A2892 RMK AO2 SLP804 T10221089
PAFA 202053Z 02004KT 10SM SCT120 BKN140 BKN200 M06/M10 A2894 RMK AO2 SLP812 T10561100 56027
PAFA 201953Z 02005KT 10SM BKN120 BKN150 OVC200 M04/M09 A2897 RMK AO2 SLP819 T10391094
PAFA 201853Z 00000KT 10SM BKN120 BKN150 OVC200 M05/M09 A2900 RMK AO2 SLP830 T10501094
PAFA 201753Z 03005KT 10SM BKN140 BKN200 M07/M12 A2902 RMK AO2 SLP838 T10721117 11072 21144 56039
PAFA 201653Z 00000KT 10SM BKN130 OVC180 M10/M13 A2906 RMK AO2 SLP852 T11001128 $
PAFA 201553Z 05008KT 10SM OVC130 M09/M13 A2910 RMK AO2 SLP865 T10941128 $
PAFA 201453Z 05005KT 10SM OVC100 M09/M13 A2914 RMK AO2 SLP879 T10941128 58025 $
PAFA 201353Z 07007KT 10SM SCT150 BKN200 M11/M13 A2917 RMK AO2 SLP889 T11061133 $
PAFA 201253Z 00000KT 10SM BKN180 M13/M16 A2919 RMK AO2 SLP896 T11331156 $
PAFA 201153Z 05007KT 10SM BKN180 M11/M13 A2922 RMK AO2 SLP904 T11061133 11083 21139 58020 $
PAFA 201053Z 05008KT 10SM BKN180 M11/M13 A2924 RMK AO2 SLP914 T11061133 $
PAFA 200953Z 05006KT 10SM BKN180 M11/M13 A2927 RMK AO2 SLP922 T11061128 $
PAFA 200853Z VRB03KT 10SM FEW023 BKN200 M13/M16 A2928 RMK AO2 SLP926 T11331156 410501139 58017 $
PAFA 200753Z 03004KT 10SM FEW100 BKN200 M13/M14 A2930 RMK AO2 SLP933 T11281144 $
PAFA 200726Z 35003KT 10SM FEW020 SCT100 BKN200 M11/M13 A2930 RMK AO2 T11111133 $
PAFA 200653Z 36003KT 10SM BKN020 BKN030 M10/M13 A2931 RMK AO2 SNE44 SLP936 T11001128 $
PAFA 200553Z 00000KT 10SM -SN BKN020 BKN030 M09/M12 A2933 RMK AO2 SLP941 T10891117 11083 21094 58009 $
PAFA 200453Z 02003KT 10SM -SN BKN020 BKN030 M09/M12 A2935 RMK AO2 SNB20 SLP948 T10891117 $
PAFA 200353Z 01005KT 10SM SCT022 BKN027 BKN035 M08/M11 A2935 RMK AO2 SLP949 T10831111 $
PAFA 200253Z 01005KT 10SM SCT022 BKN027 BKN035 M08/M12 A2935 RMK AO2 SLP950 T10831117 51005 $
PAFA 200153Z 01003KT 10SM BKN027 BKN035 BKN100 M09/M12 A2935 RMK AO2 SLP949 T10891122 $
PAFA 200053Z 00000KT 10SM BKN034 BKN070 BKN100 M08/M12 A2934 RMK AO2 SLP947 T10831117 $
PAFA 200008Z 08005KT 10SM SCT026 BKN034 BKN100 M09/M13 A2934 RMK AO2 T10891128
PAFA 192353Z 06004KT 10SM BKN026 BKN050 BKN100 M08/M12 A2934 RMK AO2 SLP944 T10831122 11067 21106 51015
PAFA 192253Z 03003KT 10SM BKN028 BKN050 OVC100 M09/M12 A2933 RMK AO2 SLP941 T10891122
PAFA 192153Z 00000KT 10SM BKN027 BKN050 BKN100 M09/M12 A2931 RMK AO2 SLP936 T10891122
PAFA 192131Z 00000KT 10SM FEW010 BKN027 OVC075 M09/M12 A2930 RMK AO2 T10941122
PAFA 192053Z 19004KT 10SM SCT031 BKN043 OVC055 M10/M13 A2929 RMK AO2 SLP930 T11001128 51022
PAFA 191953Z 19006KT 9SM BKN040 BKN050 OVC060 M11/M13 A2927 RMK AO2 SNB07E52 SLP923 T11061133
PAFA 191853Z 18008KT 10SM SCT050 BKN055 BKN070 M09/M13 A2925 RMK AO2 SLP917 PRESENT WX VCSH S-W T10941128
PAFA 191753Z 21004KT 10SM BKN070 BKN080 BKN100 M07/M12 A2922 RMK AO2 SLP907 PRESNT WX VCSH N T10671117 11050 21078 53008
PAFA 191653Z 26003KT 10SM SCT095 BKN100 BKN110 M06/M11 A2920 RMK AO2 SLP900 T10611111 $
PAFA 191553Z 24003KT 10SM BKN075 OVC090 M05/M11 A2920 RMK AO2 SLP901 T10501106 $
PAFA 191453Z 24003KT 10SM BKN070 OVC090 M06/M11 A2920 RMK AO2 SLP900 T10561106 58009 $
PAFA 191353Z 00000KT 10SM BKN070 OVC085 M05/M11 A2922 RMK AO2 SLP904 T10501106
PAFA 191253Z 27003KT 10SM OVC075 M06/M11 A2922 RMK AO2 SLP908 T10611106
PAFA 191153Z 00000KT 10SM OVC090 M07/M11 A2923 RMK AO2 SLP909 T10721106 11067 21111 58029
PAFA 191053Z 26003KT 10SM BKN065 OVC075 M07/M10 A2926 RMK AO2 SLP921 T10671100
PAFA 190953Z 00000KT 10SM BKN050 OVC065 M08/M11 A2929 RMK AO2 SLP931 T10781106
PAFA 190853Z 00000KT 10SM OVC090 M08/M11 A2932 RMK AO2 SLP939 T10781111 410441156 58029
PAFA 190753Z 00000KT 10SM OVC085 M09/M12 A2935 RMK AO2 SLP949 T10941117
PAFA 190653Z 00000KT 10SM OVC090 M10/M13 A2938 RMK AO2 SLP959 T11001128
PAFA 190553Z 00000KT 10SM OVC110 M11/M14 A2940 RMK AO2 SLP967 T11111139 11106 21128 58024
PAFA 190453Z 00000KT 10SM FEW060 OVC170 M12/M15 A2943 RMK AO2 SLP979 T11221150
PAFA 190353Z 00000KT 10SM FEW060 OVC170 M13/M15 A2945 RMK AO2 SLP986 T11281150